Time;durP1;ratioP1;P1;durP2;ratioP2;P2;SDS_P1;SDS_P2;PMS_P1;PMS_P2;Temp;Humidity;BMP_temperature;BMP_pressure;BME280_temperature;BME280_humidity;BME280_pressure;Samples;Min_cycle;Max_cycle;Signal;HPM_P1;HPM_P2
2023/01/30 00:01:07;;;;;;;20.30;11.95;;;-1.50;7.20;;;;;;7360884;19;20014;-78
2023/01/30 00:03:36;;;;;;;22.98;13.48;;;-1.50;6.80;;;;;;7360295;19;20649;-78
2023/01/30 00:06:06;;;;;;;20.80;12.27;;;-1.50;7.00;;;;;;7386453;19;20043;-79
2023/01/30 00:08:39;;;;;;;22.17;12.73;;;-1.60;7.30;;;;;;7369416;19;20015;-79
2023/01/30 00:11:11;;;;;;;23.65;13.73;;;-1.50;7.50;;;;;;7370299;19;20015;-79
2023/01/30 00:13:42;;;;;;;22.55;12.75;;;-1.60;8.00;;;;;;7370618;19;20018;-79
2023/01/30 00:16:12;;;;;;;22.20;12.75;;;-1.50;7.80;;;;;;7368263;19;20031;-79
2023/01/30 00:18:43;;;;;;;25.83;14.77;;;-1.60;7.60;;;;;;7365924;19;20032;-79
2023/01/30 00:21:15;;;;;;;22.58;12.93;;;-1.60;7.60;;;;;;7389499;19;20014;-79
2023/01/30 00:23:48;;;;;;;23.88;13.80;;;-1.50;7.50;;;;;;7367122;19;20506;-79
2023/01/30 00:26:17;;;;;;;23.77;13.40;;;-1.50;7.20;;;;;;7367423;19;20176;-78
2023/01/30 00:28:47;;;;;;;20.27;12.88;;;-1.60;6.90;;;;;;7366457;19;20082;-78
2023/01/30 00:31:17;;;;;;;21.13;12.60;;;-1.60;7.10;;;;;;7367494;19;20466;-78
2023/01/30 00:33:47;;;;;;;19.50;12.13;;;-1.60;6.80;;;;;;7367231;19;20014;-79
2023/01/30 00:36:17;;;;;;;23.05;12.80;;;-1.50;6.60;;;;;;7390070;19;20006;-80
2023/01/30 00:38:49;;;;;;;19.17;12.57;;;-1.50;6.20;;;;;;7368241;19;20014;-79
2023/01/30 00:41:19;;;;;;;22.63;13.10;;;-1.60;6.20;;;;;;7366886;19;20010;-79
2023/01/30 00:49:16;;;;;;;23.50;13.25;;;-1.70;6.40;;;;;;7373180;19;20010;-80
2023/01/30 00:51:47;;;;;;;25.67;14.07;;;-1.70;6.40;;;;;;7366944;19;20651;-79
2023/01/30 00:54:19;;;;;;;23.42;13.63;;;-1.70;6.80;;;;;;7388045;19;20029;-79
2023/01/30 00:56:49;;;;;;;23.23;13.50;;;-1.70;6.50;;;;;;7365937;19;20019;-79
2023/01/30 00:59:19;;;;;;;23.20;13.70;;;-1.70;6.50;;;;;;7363865;19;20021;-79
2023/01/30 01:01:48;;;;;;;27.25;13.05;;;-1.60;6.60;;;;;;7366879;19;20106;-79
2023/01/30 01:04:18;;;;;;;23.75;13.45;;;-1.60;5.90;;;;;;7366214;19;20027;-79
2023/01/30 01:06:48;;;;;;;19.65;11.30;;;-1.50;5.60;;;;;;7366322;19;20034;-80
2023/01/30 01:09:20;;;;;;;22.13;12.95;;;-1.40;4.90;;;;;;7386125;19;20022;-80
2023/01/30 01:11:50;;;;;;;21.42;12.25;;;-1.30;4.50;;;;;;7366187;19;20021;-80
2023/01/30 01:14:20;;;;;;;20.83;12.63;;;-1.40;3.70;;;;;;7368500;19;20014;-80
2023/01/30 01:16:50;;;;;;;23.17;12.82;;;-1.40;3.20;;;;;;7365244;19;20010;-80
2023/01/30 01:19:20;;;;;;;22.10;13.48;;;-1.40;3.60;;;;;;7364549;19;20025;-79
2023/01/30 01:21:50;;;;;;;23.02;13.38;;;-1.60;3.70;;;;;;7365103;19;20472;-80
2023/01/30 01:24:23;;;;;;;23.95;12.88;;;-1.70;4.50;;;;;;7386207;19;20029;-79
2023/01/30 01:26:53;;;;;;;19.27;12.17;;;-1.80;5.20;;;;;;7365090;19;20030;-77
2023/01/30 01:29:23;;;;;;;24.80;13.38;;;-1.80;5.90;;;;;;7363006;19;21137;-80
2023/01/30 01:31:53;;;;;;;23.52;12.85;;;-1.80;6.70;;;;;;7366646;19;20014;-80
2023/01/30 01:34:23;;;;;;;21.00;12.70;;;-1.90;7.00;;;;;;7366545;19;20010;-79
2023/01/30 01:36:53;;;;;;;22.23;12.52;;;-1.90;7.00;;;;;;7364310;19;20498;-80
2023/01/30 01:41:00;;;;;;;22.27;12.93;;;-1.90;7.40;;;;;;7384947;19;20021;-81
2023/01/30 01:42:13;;;;;;;21.08;12.70;;;-1.90;8.20;;;;;;7364447;19;20010;-80
2023/01/30 01:45:00;;;;;;;23.25;13.75;;;-1.90;8.20;;;;;;7364551;19;20007;-80
2023/01/30 01:47:30;;;;;;;22.55;13.13;;;-1.80;8.30;;;;;;7363968;19;20478;-80
2023/01/30 01:50:00;;;;;;;22.95;13.27;;;-1.80;8.20;;;;;;7363474;19;20062;-81
2023/01/30 01:52:30;;;;;;;23.20;13.85;;;-1.70;8.30;;;;;;7365035;19;20064;-80
2023/01/30 01:55:07;;;;;;;24.77;13.45;;;-1.60;8.40;;;;;;7364562;19;20021;-80
2023/01/30 01:57:41;;;;;;;26.85;14.77;;;-1.50;8.40;;;;;;7363416;19;20017;-80
2023/01/30 02:00:14;;;;;;;23.00;14.00;;;-1.30;7.40;;;;;;7383107;19;20015;-80
2023/01/30 02:02:48;;;;;;;26.35;14.43;;;-1.30;7.00;;;;;;7363696;19;20396;-80
2023/01/30 02:05:20;;;;;;;26.45;14.85;;;-1.20;6.70;;;;;;7363210;19;20015;-80
2023/01/30 02:07:54;;;;;;;27.75;15.10;;;-1.20;6.00;;;;;;7364029;19;20014;-80
2023/01/30 02:10:33;;;;;;;24.70;15.20;;;-1.20;5.80;;;;;;7360844;19;20017;-80
2023/01/30 02:13:03;;;;;;;25.80;14.75;;;-1.10;5.80;;;;;;7364876;19;20009;-80
2023/01/30 02:15:32;;;;;;;28.13;14.70;;;-1.20;6.30;;;;;;7363139;19;20083;-80
2023/01/30 02:18:03;;;;;;;27.55;16.27;;;-1.30;7.30;;;;;;7384690;19;20026;-79
2023/01/30 02:20:50;;;;;;;30.00;15.30;;;-1.40;7.60;;;;;;7360093;19;20125;-79
2023/01/30 02:23:54;;;;;;;25.90;14.07;;;-1.40;8.50;;;;;;7362568;19;20011;-79
2023/01/30 02:26:57;;;;;;;27.17;15.35;;;-1.40;8.50;;;;;;7362453;19;20006;-78
2023/01/30 02:29:52;;;;;;;27.83;15.23;;;-1.40;8.50;;;;;;7361424;19;20021;-80
2023/01/30 02:32:34;;;;;;;30.42;16.80;;;-1.40;8.90;;;;;;7362502;19;20010;-80
2023/01/30 02:35:12;;;;;;;26.58;15.15;;;-1.40;8.70;;;;;;7362267;19;20409;-80
2023/01/30 02:37:56;;;;;;;29.00;15.60;;;-1.40;8.80;;;;;;7362946;19;20017;-79
2023/01/30 02:40:42;;;;;;;25.92;15.77;;;-1.40;9.00;;;;;;7360571;19;20020;-80
2023/01/30 02:43:18;;;;;;;27.35;15.38;;;-1.40;9.20;;;;;;7361840;19;20036;-80
2023/01/30 02:45:56;;;;;;;28.38;15.68;;;-1.50;9.40;;;;;;7362220;19;20021;-81
2023/01/30 02:48:34;;;;;;;31.27;16.17;;;-1.40;9.40;;;;;;7383524;19;20376;-80
2023/01/30 02:51:08;;;;;;;26.17;14.88;;;-1.50;9.20;;;;;;7361984;19;20018;-80
2023/01/30 02:53:39;;;;;;;25.92;14.35;;;-1.50;9.20;;;;;;7362443;19;20089;-80
2023/01/30 02:56:09;;;;;;;26.92;14.80;;;-1.50;9.70;;;;;;7361863;19;20010;-79
2023/01/30 02:58:45;;;;;;;24.42;14.38;;;-1.40;9.60;;;;;;7360736;19;20018;-79
2023/01/30 03:01:33;;;;;;;26.40;14.52;;;-1.40;9.10;;;;;;7360870;19;20010;-79
2023/01/30 03:04:26;;;;;;;24.27;14.27;;;-1.30;8.50;;;;;;7362397;19;20031;-80
2023/01/30 03:07:08;;;;;;;23.02;13.90;;;-1.30;8.20;;;;;;7361913;19;20470;-79
2023/01/30 03:09:45;;;;;;;23.50;14.30;;;-1.30;7.80;;;;;;7360349;19;20074;-80
2023/01/30 03:12:23;;;;;;;24.17;13.88;;;-1.30;7.30;;;;;;7384369;19;20032;-80
2023/01/30 03:15:00;;;;;;;24.50;13.00;;;-1.30;7.20;;;;;;7365570;19;20023;-79
2023/01/30 03:17:33;;;;;;;23.30;12.38;;;-1.30;6.50;;;;;;7361334;19;20007;-79
2023/01/30 03:20:06;;;;;;;21.98;13.00;;;-1.20;6.10;;;;;;7359546;19;20102;-79
2023/01/30 03:22:36;;;;;;;21.33;11.63;;;-1.20;5.10;;;;;;7361364;19;20021;-80
2023/01/30 03:25:08;;;;;;;20.38;12.30;;;-1.10;5.00;;;;;;7362925;19;20014;-80
2023/01/30 03:27:38;;;;;;;20.90;12.13;;;-1.10;4.40;;;;;;7364730;19;20010;-80
2023/01/30 03:30:10;;;;;;;23.50;12.07;;;-1.10;3.30;;;;;;7380621;19;20376;-79
2023/01/30 03:32:39;;;;;;;20.08;11.95;;;-1.00;2.50;;;;;;7360575;19;20007;-80
2023/01/30 03:35:12;;;;;;;22.35;12.48;;;-1.00;1.90;;;;;;7360938;19;20470;-80
2023/01/30 03:37:42;;;;;;;23.08;12.02;;;-0.90;1.50;;;;;;7360606;19;20018;-80
2023/01/30 03:40:13;;;;;;;20.25;11.60;;;-0.90;1.00;;;;;;7376430;19;20042;-79
2023/01/30 03:42:43;;;;;;;22.42;12.45;;;-0.80;1.00;;;;;;7374946;19;20010;-80
2023/01/30 03:45:14;;;;;;;19.58;10.80;;;-0.70;1.00;;;;;;7389534;19;20084;-80
2023/01/30 03:47:44;;;;;;;23.00;11.30;;;-0.70;1.00;;;;;;7367919;19;20014;-80
2023/01/30 03:50:17;;;;;;;16.75;10.20;;;-0.70;1.00;;;;;;7367194;19;20015;-80
2023/01/30 03:52:47;;;;;;;18.13;11.60;;;-0.70;1.00;;;;;;7368204;19;20608;-81
2023/01/30 03:55:17;;;;;;;21.60;11.23;;;-0.60;1.00;;;;;;7368434;19;20082;-81
2023/01/30 03:57:47;;;;;;;19.58;10.75;;;-0.60;1.00;;;;;;7367704;19;20031;-81
2023/01/30 04:00:18;;;;;;;18.63;10.20;;;-0.60;1.00;;;;;;7386681;19;20025;-81
2023/01/30 04:02:48;;;;;;;18.70;10.95;;;-0.60;1.00;;;;;;7367238;19;20014;-81
2023/01/30 04:05:21;;;;;;;17.60;9.82;;;-0.50;1.00;;;;;;7366764;19;20018;-79
2023/01/30 04:07:51;;;;;;;18.67;10.50;;;-0.50;1.00;;;;;;7367527;19;20078;-79
2023/01/30 04:10:21;;;;;;;19.42;10.77;;;-0.50;1.00;;;;;;7365526;19;20022;-80
2023/01/30 04:12:51;;;;;;;16.98;9.98;;;-0.50;1.00;;;;;;7369447;19;20058;-80
2023/01/30 04:15:21;;;;;;;18.95;10.75;;;-0.40;1.00;;;;;;7388702;19;20044;-80
2023/01/30 04:17:51;;;;;;;16.15;9.75;;;-0.40;1.00;;;;;;7366665;19;20015;-80
2023/01/30 04:20:23;;;;;;;17.83;9.80;;;-0.30;1.00;;;;;;7366416;19;20022;-80
2023/01/30 04:22:53;;;;;;;18.25;10.25;;;-0.20;1.00;;;;;;7370058;19;20013;-80
2023/01/30 04:25:23;;;;;;;14.15;8.63;;;-0.10;1.00;;;;;;7367223;19;20018;-80
2023/01/30 04:27:53;;;;;;;16.65;9.32;;;-0.10;1.00;;;;;;7366777;19;20089;-80
2023/01/30 04:30:23;;;;;;;16.85;9.68;;;-0.10;1.00;;;;;;7385642;19;20014;-80
2023/01/30 04:32:53;;;;;;;13.68;8.55;;;0.00;1.00;;;;;;7365742;19;20040;-80
2023/01/30 04:35:26;;;;;;;13.48;8.60;;;0.00;1.00;;;;;;7366270;19;20018;-81
2023/01/30 04:37:55;;;;;;;15.43;9.30;;;0.10;1.00;;;;;;7366375;19;20018;-81
2023/01/30 04:40:25;;;;;;;15.52;8.80;;;0.10;1.00;;;;;;7363884;19;20018;-81
2023/01/30 04:42:55;;;;;;;14.75;8.65;;;0.20;1.00;;;;;;7366072;19;20810;-81
2023/01/30 04:45:25;;;;;;;16.35;8.00;;;0.20;1.00;;;;;;7387560;19;20017;-81
2023/01/30 04:47:54;;;;;;;15.23;8.30;;;0.30;1.00;;;;;;7365740;19;20035;-81
2023/01/30 04:50:27;;;;;;;12.68;7.75;;;0.30;1.00;;;;;;7364860;19;20476;-80
2023/01/30 04:52:57;;;;;;;15.52;8.20;;;0.30;1.00;;;;;;7364423;19;20026;-80
2023/01/30 04:55:26;;;;;;;15.82;9.13;;;0.30;1.00;;;;;;7365869;19;20412;-81
2023/01/30 04:57:56;;;;;;;15.60;7.60;;;0.40;1.00;;;;;;7365008;19;20010;-81
2023/01/30 05:00:27;;;;;;;14.07;8.65;;;0.40;1.00;;;;;;7385082;19;20015;-81
2023/01/30 05:02:57;;;;;;;12.13;7.20;;;0.30;1.00;;;;;;7365238;19;20007;-82
2023/01/30 05:05:29;;;;;;;15.40;8.68;;;0.30;1.00;;;;;;7364782;19;20010;-80
2023/01/30 05:08:00;;;;;;;11.75;7.68;;;0.40;1.00;;;;;;7365525;19;20097;-81
2023/01/30 05:10:30;;;;;;;14.07;8.35;;;0.40;1.00;;;;;;7362936;19;20011;-80
2023/01/30 05:13:03;;;;;;;17.83;8.68;;;0.40;1.00;;;;;;7367269;19;20011;-80
2023/01/30 05:15:33;;;;;;;15.65;8.45;;;0.40;1.00;;;;;;7363632;19;20070;-80
2023/01/30 05:18:03;;;;;;;14.52;8.43;;;0.40;1.00;;;;;;7389479;19;20035;-80
2023/01/30 05:20:36;;;;;;;16.35;8.57;;;0.40;1.00;;;;;;7363225;19;20014;-81
2023/01/30 05:23:06;;;;;;;14.30;8.88;;;0.30;1.00;;;;;;7364318;19;20018;-82
2023/01/30 05:25:36;;;;;;;16.40;9.82;;;0.30;1.00;;;;;;7364624;19;20211;-80
2023/01/30 05:28:06;;;;;;;14.30;7.85;;;0.40;1.00;;;;;;7364419;19;20018;-80
2023/01/30 05:30:36;;;;;;;16.20;8.65;;;0.40;1.00;;;;;;7361499;19;20405;-79
2023/01/30 05:33:06;;;;;;;13.88;8.57;;;0.40;1.00;;;;;;7385817;19;20014;-81
2023/01/30 05:35:38;;;;;;;15.07;8.48;;;0.40;1.00;;;;;;7364021;19;20017;-80
2023/01/30 05:38:08;;;;;;;13.10;8.52;;;0.40;1.00;;;;;;7364658;19;20119;-80
2023/01/30 05:40:38;;;;;;;13.35;7.90;;;0.40;1.00;;;;;;7362834;19;20014;-80
2023/01/30 05:43:08;;;;;;;14.43;8.05;;;0.40;1.00;;;;;;7364811;19;20010;-80
2023/01/30 05:45:38;;;;;;;13.00;7.75;;;0.40;1.00;;;;;;7364354;19;20479;-80
2023/01/30 05:48:08;;;;;;;14.73;7.85;;;0.40;1.00;;;;;;7385572;19;20014;-80
2023/01/30 05:50:41;;;;;;;14.73;8.07;;;0.40;1.00;;;;;;7363028;19;20094;-80
2023/01/30 05:53:10;;;;;;;16.05;7.95;;;0.50;1.00;;;;;;7363675;19;20477;-80
2023/01/30 05:55:42;;;;;;;13.80;7.93;;;0.50;1.00;;;;;;7363374;19;20015;-80
2023/01/30 05:58:12;;;;;;;14.02;8.10;;;0.50;1.00;;;;;;7363292;19;20073;-80
2023/01/30 06:00:42;;;;;;;14.25;8.27;;;0.50;1.00;;;;;;7360766;19;20087;-80
2023/01/30 06:03:12;;;;;;;11.52;7.22;;;0.50;1.00;;;;;;7380574;19;20010;-81
2023/01/30 06:05:44;;;;;;;13.57;8.15;;;0.60;1.00;;;;;;7363861;19;20049;-81
2023/01/30 06:08:14;;;;;;;13.07;7.55;;;0.60;1.00;;;;;;7363869;19;20434;-80
2023/01/30 06:10:44;;;;;;;15.05;7.97;;;0.60;1.00;;;;;;7362791;19;20086;-79
2023/01/30 06:13:14;;;;;;;14.20;8.38;;;0.60;1.00;;;;;;7363259;19;20010;-79
2023/01/30 06:15:43;;;;;;;14.98;8.73;;;0.60;1.00;;;;;;7366709;19;20093;-80
2023/01/30 06:18:14;;;;;;;13.77;7.93;;;0.60;1.00;;;;;;7384128;19;20014;-79
2023/01/30 06:20:49;;;;;;;12.88;7.38;;;0.60;1.00;;;;;;7364219;19;20530;-80
2023/01/30 06:23:19;;;;;;;16.38;7.90;;;0.60;1.00;;;;;;7362351;19;20010;-82
2023/01/30 06:25:51;;;;;;;11.85;7.50;;;0.60;1.00;;;;;;7363210;19;20006;-81
2023/01/30 06:28:21;;;;;;;14.20;8.13;;;0.60;1.00;;;;;;7362573;19;20025;-82
2023/01/30 06:30:52;;;;;;;13.25;7.75;;;0.70;1.00;;;;;;7361627;19;20136;-81
2023/01/30 06:33:22;;;;;;;14.85;7.90;;;0.70;1.00;;;;;;7383940;19;20019;-81
2023/01/30 06:35:54;;;;;;;14.93;8.15;;;0.70;1.00;;;;;;7363126;19;20074;-81
2023/01/30 06:38:24;;;;;;;15.52;7.88;;;0.70;1.00;;;;;;7360873;19;20847;-81
2023/01/30 06:40:55;;;;;;;12.20;7.53;;;0.70;1.00;;;;;;7363130;19;20017;-82
2023/01/30 06:43:24;;;;;;;14.52;8.15;;;0.80;1.00;;;;;;7362012;19;20030;-80
2023/01/30 06:45:54;;;;;;;13.73;7.75;;;0.80;1.00;;;;;;7362821;19;20020;-81
2023/01/30 06:48:24;;;;;;;12.45;7.15;;;0.80;1.00;;;;;;7382691;19;20015;-81
2023/01/30 06:50:56;;;;;;;13.48;8.55;;;0.80;1.00;;;;;;7362458;19;20021;-79
2023/01/30 06:53:29;;;;;;;13.13;8.13;;;0.80;1.00;;;;;;7361436;19;20570;-80
2023/01/30 06:55:59;;;;;;;15.25;7.53;;;0.80;1.00;;;;;;7362998;19;20010;-81
2023/01/30 06:58:29;;;;;;;14.57;8.27;;;0.80;1.00;;;;;;7362991;19;20015;-80
2023/01/30 07:01:01;;;;;;;12.85;8.23;;;0.80;1.00;;;;;;7362519;19;20014;-81
2023/01/30 07:03:31;;;;;;;15.07;7.85;;;0.80;1.00;;;;;;7378891;19;20014;-81
2023/01/30 07:06:03;;;;;;;13.23;7.57;;;0.80;1.00;;;;;;7382821;19;20112;-81
2023/01/30 07:08:33;;;;;;;13.13;7.20;;;0.80;1.00;;;;;;7361665;19;20426;-79
2023/01/30 07:11:03;;;;;;;13.73;7.90;;;0.90;1.00;;;;;;7370490;19;20014;-80
2023/01/30 07:13:33;;;;;;;12.68;7.10;;;0.90;1.00;;;;;;7367334;19;20006;-81
2023/01/30 07:16:03;;;;;;;14.43;7.40;;;0.90;1.00;;;;;;7360856;19;20060;-80
2023/01/30 07:18:33;;;;;;;15.65;8.93;;;0.90;1.00;;;;;;7362695;19;20418;-81
2023/01/30 07:21:05;;;;;;;16.00;7.90;;;0.90;1.00;;;;;;7382500;19;20021;-80
2023/01/30 07:23:36;;;;;;;12.90;7.43;;;0.90;1.00;;;;;;7359769;19;20007;-81
2023/01/30 07:26:07;;;;;;;14.15;7.95;;;0.90;1.00;;;;;;7360657;19;20040;-82
2023/01/30 07:28:37;;;;;;;12.13;7.35;;;0.90;1.00;;;;;;7361031;19;20094;-80
2023/01/30 07:31:07;;;;;;;14.25;8.05;;;0.90;1.00;;;;;;7360445;19;20022;-80
2023/01/30 07:33:37;;;;;;;14.90;7.93;;;1.00;1.00;;;;;;7359900;19;20485;-82
2023/01/30 07:36:11;;;;;;;12.95;7.63;;;0.90;1.00;;;;;;7383632;19;20081;-80
2023/01/30 07:38:40;;;;;;;15.45;7.68;;;1.00;1.00;;;;;;7360895;19;20160;-79
2023/01/30 07:41:10;;;;;;;11.98;6.95;;;1.00;1.00;;;;;;7360249;19;20484;-80
2023/01/30 07:43:40;;;;;;;14.32;7.93;;;1.00;1.00;;;;;;7359359;19;20040;-81
2023/01/30 07:46:10;;;;;;;12.75;7.30;;;1.10;1.00;;;;;;7361309;19;20517;-81
2023/01/30 07:48:40;;;;;;;12.82;7.05;;;1.10;1.00;;;;;;7359041;19;20081;-82
2023/01/30 07:51:13;;;;;;;10.95;7.05;;;1.10;1.00;;;;;;7381585;19;20094;-80
2023/01/30 07:53:43;;;;;;;12.68;6.80;;;1.00;1.00;;;;;;7360412;19;20018;-80
2023/01/30 07:56:17;;;;;;;12.70;6.22;;;1.10;1.00;;;;;;7360872;19;20077;-80
2023/01/30 07:58:47;;;;;;;13.40;7.40;;;1.10;1.00;;;;;;7359469;19;20049;-81
2023/01/30 08:01:18;;;;;;;13.73;7.18;;;1.20;1.00;;;;;;7360917;19;20022;-81
2023/01/30 08:03:48;;;;;;;12.45;6.82;;;1.20;1.00;;;;;;7359231;19;20413;-81
2023/01/30 08:06:20;;;;;;;12.65;7.10;;;1.30;1.00;;;;;;7383121;19;20336;-80
2023/01/30 08:08:50;;;;;;;11.18;6.50;;;1.30;1.00;;;;;;7362291;19;20015;-81
2023/01/30 08:11:20;;;;;;;14.43;6.95;;;1.30;1.00;;;;;;7360287;19;20016;-80
2023/01/30 08:13:50;;;;;;;13.93;7.38;;;1.20;1.00;;;;;;7364125;19;20025;-80
2023/01/30 08:16:20;;;;;;;13.63;7.93;;;1.20;1.00;;;;;;7360550;19;20026;-80
2023/01/30 08:18:50;;;;;;;13.52;8.05;;;1.10;1.00;;;;;;7358175;19;20030;-80
2023/01/30 08:21:22;;;;;;;13.75;7.35;;;1.30;1.00;;;;;;7381248;19;20010;-80
2023/01/30 08:23:52;;;;;;;10.90;6.70;;;1.20;1.00;;;;;;7357431;19;20010;-79
2023/01/30 08:26:22;;;;;;;14.82;7.85;;;1.20;1.00;;;;;;7360437;19;20414;-80
2023/01/30 08:28:54;;;;;;;12.93;7.60;;;1.20;1.00;;;;;;7366093;19;20014;-80
2023/01/30 08:31:24;;;;;;;13.20;7.00;;;1.30;1.00;;;;;;7368386;19;20010;-81
2023/01/30 08:33:54;;;;;;;12.13;7.20;;;1.40;1.00;;;;;;7366634;19;20046;-80
2023/01/30 08:36:27;;;;;;;11.98;7.47;;;1.40;1.00;;;;;;7388470;19;20031;-84
2023/01/30 08:38:57;;;;;;;13.90;7.22;;;1.50;1.00;;;;;;7364576;19;20035;-81
2023/01/30 08:41:27;;;;;;;14.73;6.97;;;1.50;1.00;;;;;;7365533;19;20006;-82
2023/01/30 08:43:57;;;;;;;12.95;6.80;;;1.60;1.00;;;;;;7364622;19;20014;-82
2023/01/30 08:46:27;;;;;;;12.00;6.93;;;1.70;1.00;;;;;;7365594;19;20010;-82
2023/01/30 08:48:57;;;;;;;13.18;7.25;;;1.80;1.00;;;;;;7365409;19;20026;-82
2023/01/30 08:51:29;;;;;;;11.35;6.75;;;1.90;1.00;;;;;;7388220;19;20387;-81
2023/01/30 08:53:59;;;;;;;13.63;6.80;;;2.00;1.00;;;;;;7366380;19;20135;-81
2023/01/30 08:56:29;;;;;;;10.60;6.50;;;2.00;1.00;;;;;;7366095;19;20117;-81
2023/01/30 08:58:59;;;;;;;10.63;5.95;;;1.90;1.00;;;;;;7365877;19;20015;-79
2023/01/30 09:01:29;;;;;;;10.43;6.45;;;2.00;1.00;;;;;;7367145;19;20027;-80
2023/01/30 09:03:59;;;;;;;9.15;5.88;;;2.00;1.00;;;;;;7369351;19;20046;-81
2023/01/30 09:06:31;;;;;;;11.75;6.40;;;2.00;1.00;;;;;;7389011;19;20014;-80
2023/01/30 09:09:01;;;;;;;12.80;5.95;;;2.00;1.00;;;;;;7364516;19;20128;-80
2023/01/30 09:11:31;;;;;;;9.77;5.53;;;2.00;1.00;;;;;;7365756;19;20010;-81
2023/01/30 09:14:01;;;;;;;12.05;6.55;;;2.00;1.00;;;;;;7368943;19;20011;-81
2023/01/30 09:16:31;;;;;;;18.40;6.70;;;2.00;1.00;;;;;;7365860;19;20018;-80
2023/01/30 09:19:01;;;;;;;10.25;6.30;;;2.00;1.00;;;;;;7364680;19;20525;-79
2023/01/30 09:21:33;;;;;;;13.35;5.72;;;2.00;1.00;;;;;;7386453;19;20025;-80
2023/01/30 09:24:03;;;;;;;11.93;6.28;;;2.10;1.00;;;;;;7385026;19;20377;-80
2023/01/30 09:26:33;;;;;;;9.02;5.97;;;2.10;1.00;;;;;;7364279;19;20018;-81
2023/01/30 09:29:03;;;;;;;9.70;5.80;;;2.20;1.00;;;;;;7362284;19;20461;-80
2023/01/30 09:31:33;;;;;;;10.32;5.70;;;2.20;1.00;;;;;;7364967;19;20014;-80
2023/01/30 09:34:03;;;;;;;12.98;5.68;;;2.30;1.00;;;;;;7364392;19;20532;-79
2023/01/30 09:36:35;;;;;;;10.70;5.00;;;2.30;1.00;;;;;;7364577;19;20017;-80
2023/01/30 09:39:05;;;;;;;12.75;5.55;;;2.40;1.00;;;;;;7384217;19;20011;-80
2023/01/30 09:42:09;;;;;;;9.60;4.65;;;2.40;1.00;;;;;;7364396;19;20043;-80
2023/01/30 09:45:12;;;;;;;8.48;5.15;;;2.50;1.00;;;;;;7362374;19;20027;-81
2023/01/30 09:47:50;;;;;;;10.13;5.25;;;2.50;1.00;;;;;;7363980;19;20038;-80
2023/01/30 09:50:36;;;;;;;7.10;4.57;;;2.60;1.00;;;;;;7363253;19;20084;-81
2023/01/30 09:53:16;;;;;;;9.65;4.93;;;2.60;1.00;;;;;;7367602;19;20027;-80
2023/01/30 09:55:47;;;;;;;9.27;4.35;;;2.70;1.00;;;;;;7373657;19;20014;-81
2023/01/30 09:58:19;;;;;;;7.78;4.60;;;2.70;1.00;;;;;;7371831;19;20006;-80
2023/01/30 10:00:53;;;;;;;6.18;3.72;;;2.80;1.00;;;;;;7379481;19;20015;-80
2023/01/30 10:03:30;;;;;;;9.90;5.10;;;2.80;1.00;;;;;;7385689;19;20082;-80
2023/01/30 10:06:03;;;;;;;6.70;4.35;;;2.90;1.00;;;;;;7364211;19;20507;-81
2023/01/30 10:08:50;;;;;;;6.78;4.70;;;2.90;1.00;;;;;;7363110;19;20019;-81
2023/01/30 10:11:35;;;;;;;7.10;4.13;;;2.90;1.00;;;;;;7363345;19;20016;-81
2023/01/30 10:14:17;;;;;;;7.55;4.70;;;2.90;1.00;;;;;;7366564;19;20045;-81
2023/01/30 10:17:00;;;;;;;7.53;4.10;;;2.90;1.00;;;;;;7363455;19;20291;-80
2023/01/30 10:19:49;;;;;;;6.57;4.13;;;2.90;1.00;;;;;;7363525;19;20044;-81
2023/01/30 10:22:34;;;;;;;7.43;4.38;;;3.00;1.00;;;;;;7363179;19;20084;-82
2023/01/30 10:25:17;;;;;;;8.10;4.70;;;3.00;1.00;;;;;;7362146;19;20021;-81
2023/01/30 10:27:54;;;;;;;9.80;4.43;;;2.90;1.00;;;;;;7363652;19;20339;-82
2023/01/30 10:30:24;;;;;;;8.15;4.75;;;3.00;1.00;;;;;;7382242;19;20022;-80
2023/01/30 10:32:59;;;;;;;7.15;4.32;;;3.00;1.00;;;;;;7362598;19;20015;-81
2023/01/30 10:35:35;;;;;;;8.00;4.93;;;3.00;1.00;;;;;;7363706;19;20391;-82
2023/01/30 10:38:14;;;;;;;9.40;4.97;;;3.00;1.00;;;;;;7363022;19;20028;-81
2023/01/30 10:40:53;;;;;;;7.78;4.88;;;3.10;1.00;;;;;;7363045;19;20031;-82
2023/01/30 10:43:28;;;;;;;7.57;4.60;;;3.00;1.00;;;;;;7365563;19;20014;-82
2023/01/30 10:46:05;;;;;;;9.20;4.63;;;3.10;1.00;;;;;;7359847;19;20017;-80
2023/01/30 10:48:51;;;;;;;7.65;4.60;;;3.10;1.00;;;;;;7360739;19;20029;-81
2023/01/30 10:51:30;;;;;;;6.68;4.45;;;3.20;1.00;;;;;;7383612;19;20058;-80
2023/01/30 10:54:04;;;;;;;8.68;3.90;;;3.20;1.00;;;;;;7363155;19;20050;-82
2023/01/30 10:56:41;;;;;;;;;;;3.30;1.00;;;;;;7365533;19;20006;-81
2023/01/30 10:59:25;;;;;;;12.90;3.92;;;3.30;1.00;;;;;;7360040;19;19929;-79
2023/01/30 11:02:01;;;;;;;6.28;3.08;;;3.40;1.00;;;;;;7363449;19;20024;-81
2023/01/30 11:04:34;;;;;;;4.68;2.95;;;3.40;1.00;;;;;;7361671;19;20014;-80
2023/01/30 11:07:05;;;;;;;4.28;2.83;;;3.50;1.00;;;;;;7361233;19;20014;-80
2023/01/30 11:09:42;;;;;;;4.68;2.17;;;3.50;1.00;;;;;;7359811;19;20025;-83
2023/01/30 11:12:16;;;;;;;3.97;2.55;;;3.50;1.00;;;;;;7384490;19;20015;-80
2023/01/30 11:15:01;;;;;;;2.63;2.00;;;3.60;1.00;;;;;;7365800;19;20424;-80
2023/01/30 11:17:34;;;;;;;3.45;2.20;;;3.60;1.00;;;;;;7360996;19;20388;-81
2023/01/30 11:20:09;;;;;;;4.78;2.13;;;3.60;1.00;;;;;;7359878;19;20040;-81
2023/01/30 11:22:48;;;;;;;3.13;1.95;;;3.80;1.70;;;;;;7361198;19;20086;-82
2023/01/30 11:25:21;;;;;;;2.72;1.73;;;3.80;1.00;;;;;;7362128;19;20023;-81
2023/01/30 11:27:58;;;;;;;2.05;1.65;;;3.80;1.00;;;;;;7361813;19;20044;-81
2023/01/30 11:30:31;;;;;;;5.07;1.70;;;3.80;1.00;;;;;;7381988;19;20014;-82
2023/01/30 11:33:12;;;;;;;2.65;1.73;;;3.80;1.50;;;;;;7361424;19;20014;-82
2023/01/30 11:35:53;;;;;;;2.83;1.55;;;3.80;2.40;;;;;;7360350;19;20014;-81
2023/01/30 11:38:26;;;;;;;2.78;1.73;;;3.80;2.80;;;;;;7360214;19;20546;-81
2023/01/30 11:41:19;;;;;;;3.10;1.80;;;3.80;3.00;;;;;;7361960;19;20121;-81
2023/01/30 11:43:52;;;;;;;2.40;1.70;;;3.80;3.20;;;;;;7362047;19;20332;-80
2023/01/30 11:46:22;;;;;;;2.90;1.60;;;3.80;3.30;;;;;;7360253;19;20021;-82
2023/01/30 11:48:56;;;;;;;4.57;2.10;;;3.80;3.50;;;;;;7359987;19;20007;-83
2023/01/30 11:51:49;;;;;;;3.28;2.05;;;3.90;3.60;;;;;;7363559;19;20022;-82
2023/01/30 11:54:22;;;;;;;2.33;1.50;;;3.80;3.50;;;;;;7386681;19;20011;-82
2023/01/30 11:56:55;;;;;;;2.40;1.25;;;4.00;4.30;;;;;;7359763;19;20020;-80
2023/01/30 11:59:33;;;;;;;2.03;1.00;;;4.20;3.90;;;;;;7358926;19;20010;-81
2023/01/30 12:02:06;;;;;;;1.35;0.77;;;4.30;2.70;;;;;;7363928;19;20031;-81
2023/01/30 12:04:36;;;;;;;0.98;0.73;;;4.40;2.40;;;;;;7366810;19;20021;-81
2023/01/30 12:07:08;;;;;;;2.22;1.15;;;4.40;2.00;;;;;;7367048;19;20006;-82
2023/01/30 12:09:39;;;;;;;1.27;0.90;;;4.40;2.10;;;;;;7364925;19;20022;-81
2023/01/30 12:12:29;;;;;;;1.50;1.00;;;4.50;1.70;;;;;;7388812;19;20010;-82
2023/01/30 12:15:16;;;;;;;1.70;0.95;;;4.40;2.10;;;;;;7372789;19;20082;-82
2023/01/30 12:17:50;;;;;;;1.38;0.90;;;4.50;3.00;;;;;;7369171;19;20042;-83
2023/01/30 12:20:31;;;;;;;1.52;0.77;;;4.50;3.70;;;;;;7365938;19;20018;-83
2023/01/30 12:23:12;;;;;;;0.90;0.73;;;4.40;4.90;;;;;;7366909;19;20011;-80
2023/01/30 12:25:53;;;;;;;1.52;0.80;;;4.30;6.30;;;;;;7364780;19;20015;-80
2023/01/30 12:28:31;;;;;;;1.02;0.70;;;4.30;7.60;;;;;;7364320;19;20045;-79
2023/01/30 12:31:10;;;;;;;3.00;0.77;;;4.20;7.70;;;;;;7366635;19;20031;-80
2023/01/30 12:33:40;;;;;;;0.90;0.80;;;4.20;7.90;;;;;;7368175;19;20387;-78
2023/01/30 12:36:19;;;;;;;1.20;0.90;;;4.20;8.20;;;;;;7387705;19;20014;-79
2023/01/30 12:38:58;;;;;;;1.35;0.85;;;4.20;8.40;;;;;;7364503;19;20070;-79
2023/01/30 12:41:42;;;;;;;2.15;1.25;;;4.20;8.00;;;;;;7365814;19;20015;-79
2023/01/30 12:44:28;;;;;;;2.22;0.90;;;4.20;7.90;;;;;;7365776;19;20396;-80
2023/01/30 12:47:22;;;;;;;2.38;1.25;;;4.20;7.80;;;;;;7365466;19;20061;-81
2023/01/30 12:50:08;;;;;;;2.22;1.10;;;4.20;6.60;;;;;;7366118;19;20006;-80
2023/01/30 12:53:03;;;;;;;2.20;1.27;;;4.20;7.10;;;;;;7365722;19;20007;-78
2023/01/30 12:55:43;;;;;;;1.83;1.05;;;4.10;7.40;;;;;;7366081;19;20028;-79
2023/01/30 12:58:19;;;;;;;2.20;1.25;;;4.10;6.30;;;;;;7364051;19;20011;-80
2023/01/30 13:01:06;;;;;;;2.53;1.30;;;4.10;6.90;;;;;;7366323;19;20018;-80
2023/01/30 13:03:45;;;;;;;2.47;1.38;;;4.10;6.40;;;;;;7366475;19;20090;-78
2023/01/30 13:06:33;;;;;;;1.50;1.13;;;4.20;6.00;;;;;;7386118;19;20482;-81
2023/01/30 13:09:16;;;;;;;1.65;1.08;;;4.20;4.80;;;;;;7363774;19;20010;-80
2023/01/30 13:11:58;;;;;;;2.35;1.30;;;4.30;4.50;;;;;;7364734;19;20109;-80
2023/01/30 13:14:34;;;;;;;1.92;1.08;;;4.30;4.50;;;;;;7369617;19;20480;-81
2023/01/30 13:17:15;;;;;;;2.08;1.10;;;4.30;3.40;;;;;;7366207;19;20018;-80
2023/01/30 13:19:54;;;;;;;3.17;1.13;;;4.30;3.20;;;;;;7363773;19;20015;-82
2023/01/30 13:22:29;;;;;;;2.03;1.50;;;4.30;3.40;;;;;;7367818;19;20031;-82
2023/01/30 13:25:10;;;;;;;1.45;1.10;;;4.30;3.10;;;;;;7368993;19;20018;-79
2023/01/30 13:27:44;;;;;;;2.58;1.20;;;4.30;2.20;;;;;;7371823;19;20014;-81
2023/01/30 13:30:19;;;;;;;2.65;1.23;;;4.40;2.20;;;;;;7388170;19;20030;-81
2023/01/30 13:32:54;;;;;;;2.65;1.52;;;4.30;1.80;;;;;;7364647;19;20030;-82